Santa Margherita — V7JA2 — position and weather

sailwx.info

Track history (hours):
 
Tides and Currents Weather Stations Pressure Air Temp Water Temp Dewpoint Dewpoint Depression Visibility Wind Speed Wind Dir Waves Ship Positions

Santa Margherita

Last reported at 2017-Oct-15 21:41 UTC. Time now 2017-Nov-23 00:25 UTC.
Position N 01°09' E 103°43'.
Warning: this ship's position is 38 days out of date.

Length 190 m; draft 12 m.

Type: Cargo ship. MMSI: 538090191.

Date/timePositionNaut miles runAvg speedWind from/ knotsBaromVisibWave heightAir tempDewpointWater temp
2017-Oct-15 21:41N 01°09' E 103°43'1 2.8
2017-Oct-15 21:25N 01°09' E 103°44'1 2.5
2017-Oct-15 20:55N 01°09' E 103°45'18 3.9
2017-Oct-15 16:16N 01°18' E 104°00'0 0.1
2017-Oct-15 15:55N 01°18' E 104°00'4442.1
2017-Oct-15 14:53N 01°22' E 103°17'1011.4
2017-Oct-15 14:00N 01°15' E 103°24'610.7
2017-Oct-15 13:29N 01°14' E 103°30'510.6
2017-Oct-15 13:01N 01°12' E 103°35'510.4
2017-Oct-15 12:30N 01°11' E 103°40'5 9.5
2017-Oct-15 12:00N 01°08' E 103°44'5 9.6
2017-Oct-15 11:30N 01°10' E 103°48'510.4
2017-Oct-15 11:01N 01°13' E 103°53'510.6
2017-Oct-15 10:30N 01°15' E 103°58'4 7.5
2017-Oct-15 10:00N 01°17' E 104°01'1 0.1
2017-Oct-15 05:53N 01°17' E 104°01'0 0.1
2017-Oct-15 02:23N 01°17' E 104°00'1 0.9
2017-Oct-15 01:40N 01°17' E 103°60'2 7.3
2017-Oct-15 01:25N 01°16' E 103°58'1 1.9
2017-Oct-15 01:00N 01°16' E 103°58'3 5.1
2017-Oct-15 00:30N 01°16' E 104°00'  
Track history (hours):
 
Tides and Currents Weather Stations Pressure Air Temp Water Temp Dewpoint Dewpoint Depression Visibility Wind Speed Wind Dir Waves Ship Positions

Santa Margherita

Last reported at 2017-Oct-15 21:41 UTC. Time now 2017-Nov-23 00:25 UTC.
Position N 01°09' E 103°43'.
Warning: this ship's position is 38 days out of date.

Length 190 m; draft 12 m.

Type: Cargo ship. MMSI: 538090191.

Date/timePositionNaut miles runAvg speedWind from/ knotsBaromVisibWave heightAir tempDewpointWater temp
2017-Oct-15 21:41N 01°09' E 103°43'1 2.8
2017-Oct-15 21:25N 01°09' E 103°44'1 2.5
2017-Oct-15 20:55N 01°09' E 103°45'18 3.9
2017-Oct-15 16:16N 01°18' E 104°00'0 0.1
2017-Oct-15 15:55N 01°18' E 104°00'4442.1
2017-Oct-15 14:53N 01°22' E 103°17'1011.4
2017-Oct-15 14:00N 01°15' E 103°24'610.7
2017-Oct-15 13:29N 01°14' E 103°30'510.6
2017-Oct-15 13:01N 01°12' E 103°35'510.4
2017-Oct-15 12:30N 01°11' E 103°40'5 9.5
2017-Oct-15 12:00N 01°08' E 103°44'5 9.6
2017-Oct-15 11:30N 01°10' E 103°48'510.4
2017-Oct-15 11:01N 01°13' E 103°53'510.6
2017-Oct-15 10:30N 01°15' E 103°58'4 7.5
2017-Oct-15 10:00N 01°17' E 104°01'1 0.1
2017-Oct-15 05:53N 01°17' E 104°01'0 0.1
2017-Oct-15 02:23N 01°17' E 104°00'1 0.9
2017-Oct-15 01:40N 01°17' E 103°60'2 7.3
2017-Oct-15 01:25N 01°16' E 103°58'1 1.9
2017-Oct-15 01:00N 01°16' E 103°58'3 5.1
2017-Oct-15 00:30N 01°16' E 104°00'  

Dump ship's entire track history